Time;durP1;ratioP1;P1;durP2;ratioP2;P2;SDS_P1;SDS_P2;PMS_P1;PMS_P2;Temp;Humidity;BMP_temperature;BMP_pressure;BME280_temperature;BME280_humidity;BME280_pressure;Samples;Min_cycle;Max_cycle;Signal;HPM_P1;HPM_P2
2022/01/17 00:00:00;;;;;;;20.05;3.45;;;6.40;99.90;;;;;;4783457;29;20503;-86
2022/01/17 00:02:28;;;;;;;27.80;3.42;;;6.20;99.90;;;;;;4799053;29;20058;-86
2022/01/17 00:04:54;;;;;;;23.67;3.30;;;6.90;99.90;;;;;;4799842;29;20126;-86
2022/01/17 00:07:19;;;;;;;23.23;3.47;;;7.80;99.90;;;;;;4800211;29;20549;-85
2022/01/17 00:09:45;;;;;;;26.60;2.88;;;7.50;99.90;;;;;;4799829;29;20125;-85
2022/01/17 00:12:11;;;;;;;28.38;4.05;;;6.20;99.90;;;;;;4779977;29;20521;-84
2022/01/17 00:14:41;;;;;;;29.23;3.78;;;;;;;;;;4797454;29;20408;-85
2022/01/17 00:19:47;;;;;;;30.50;3.70;;;6.70;99.90;;;;;;4800195;29;20054;-85
2022/01/17 00:22:15;;;;;;;24.02;3.67;;;4.60;99.90;;;;;;4795804;29;20317;-85
2022/01/17 00:24:41;;;;;;;22.95;4.53;;;5.70;99.90;;;;;;4801360;29;20074;-85
2022/01/17 00:27:07;;;;;;;28.45;3.40;;;5.90;99.90;;;;;;4797812;29;20058;-86
2022/01/17 00:29:33;;;;;;;29.23;4.15;;;5.90;99.90;;;;;;4801838;29;20046;-85
2022/01/17 00:31:59;;;;;;;24.25;3.28;;;5.90;99.90;;;;;;4802660;29;20127;-86
2022/01/17 00:34:26;;;;;;;33.25;4.13;;;5.70;99.90;;;;;;4794060;29;20536;-87
2022/01/17 00:36:52;;;;;;;29.88;3.53;;;;;;;;;;4779865;29;20057;-85
2022/01/17 00:39:18;;;;;;;21.15;3.40;;;6.10;99.90;;;;;;4803700;29;20058;-85
2022/01/17 00:41:44;;;;;;;22.13;3.25;;;7.00;99.90;;;;;;4782620;29;20115;-91
2022/01/17 00:44:10;;;;;;;23.20;3.42;;;6.10;99.90;;;;;;4796955;29;20042;-85
2022/01/17 00:46:36;;;;;;;30.27;4.18;;;6.30;99.90;;;;;;4795717;29;20104;-87
2022/01/17 00:49:02;;;;;;;25.30;3.42;;;7.00;99.90;;;;;;4797423;29;20057;-85
2022/01/17 00:51:28;;;;;;;19.95;3.85;;;6.20;99.90;;;;;;4795904;29;20047;-89
2022/01/17 00:53:54;;;;;;;23.92;3.83;;;8.00;99.90;;;;;;4795804;29;20045;-88
2022/01/17 00:56:21;;;;;;;22.52;3.35;;;7.00;99.90;;;;;;4797367;29;20161;-87
2022/01/17 00:58:47;;;;;;;33.03;3.95;;;;;;;;;;4798901;29;20581;-86
2022/01/17 01:01:13;;;;;;;26.65;3.40;;;6.30;99.90;;;;;;4796316;29;20074;-85
2022/01/17 01:03:39;;;;;;;26.80;4.07;;;7.10;99.90;;;;;;4798260;29;20134;-86
2022/01/17 01:06:05;;;;;;;34.15;3.83;;;6.60;99.90;;;;;;4797217;29;20069;-85
2022/01/17 01:08:31;;;;;;;25.48;3.50;;;5.80;99.90;;;;;;4796406;29;20050;-86
2022/01/17 01:10:56;;;;;;;30.65;4.15;;;5.50;99.90;;;;;;4798352;29;20086;-90
2022/01/17 01:13:23;;;;;;;28.00;3.58;;;6.30;99.90;;;;;;4797103;29;20441;-84
2022/01/17 01:29:21;;;;;;;31.80;4.55;;;;;;;;;;4816134;29;20062;-90
2022/01/17 01:31:52;;;;;;;33.40;4.03;;;5.50;99.90;;;;;;4798040;29;20107;-86
2022/01/17 01:34:21;;;;;;;30.52;4.03;;;6.40;99.90;;;;;;4801550;29;20533;-84
2022/01/17 01:36:48;;;;;;;25.30;3.80;;;8.70;99.90;;;;;;4812641;29;20104;-86
2022/01/17 01:39:22;;;;;;;26.95;4.13;;;5.60;99.90;;;;;;4798749;29;20047;-85
2022/01/17 01:41:49;;;;;;;18.92;4.00;;;5.30;99.90;;;;;;4796657;29;20204;-89
2022/01/17 01:44:17;;;;;;;25.38;3.80;;;6.20;99.90;;;;;;4800653;29;20046;-85
2022/01/17 01:46:43;;;;;;;25.48;3.65;;;6.50;99.90;;;;;;4796452;29;20679;-86
2022/01/17 01:49:10;;;;;;;26.38;4.00;;;5.40;99.90;;;;;;4794600;29;20513;-85
2022/01/17 01:51:36;;;;;;;28.83;3.58;;;;;;;;;;4780988;29;20199;-88
2022/01/17 01:54:03;;;;;;;26.20;3.83;;;7.10;99.90;;;;;;4795216;29;20410;-87
2022/01/17 01:56:29;;;;;;;25.48;3.85;;;;;;;;;;4789945;29;20042;-86
2022/01/17 01:58:55;;;;;;;27.33;3.97;;;6.40;99.90;;;;;;4796490;29;20508;-87
2022/01/17 02:01:23;;;;;;;21.10;3.00;;;6.30;99.90;;;;;;4779954;29;20079;-85
2022/01/17 02:03:49;;;;;;;35.25;3.47;;;5.80;99.90;;;;;;4798113;29;20046;-84
2022/01/17 02:06:15;;;;;;;25.48;4.03;;;7.50;99.90;;;;;;4779140;29;20049;-86
2022/01/17 02:08:41;;;;;;;29.85;3.65;;;;;;;;;;4797739;29;20107;-86
2022/01/17 02:11:10;;;;;;;32.72;4.35;;;5.70;99.90;;;;;;4776980;29;20481;-86
2022/01/17 02:13:38;;;;;;;28.33;3.65;;;6.30;99.90;;;;;;4780041;29;20070;-88
2022/01/17 02:16:06;;;;;;;19.98;3.72;;;5.50;99.90;;;;;;4796648;29;20050;-86
2022/01/17 02:18:32;;;;;;;32.92;3.92;;;3.70;99.90;;;;;;4797672;29;20504;-86
2022/01/17 02:21:19;;;;;;;29.67;3.72;;;7.70;99.90;;;;;;4796010;29;20085;-86
2022/01/17 02:23:51;;;;;;;20.40;3.83;;;5.80;99.90;;;;;;4796573;29;20133;-86
2022/01/17 02:26:19;;;;;;;28.27;4.25;;;6.10;99.90;;;;;;4794296;29;20058;-85
2022/01/17 02:28:50;;;;;;;24.90;3.80;;;5.90;99.90;;;;;;4795659;29;20133;-90
2022/01/17 02:31:16;;;;;;;29.73;3.78;;;5.40;99.90;;;;;;4795228;29;20058;-86
2022/01/17 02:33:42;;;;;;;32.38;4.05;;;5.00;99.90;;;;;;4764970;29;20062;-87
2022/01/17 02:36:08;;;;;;;24.98;3.65;;;6.00;99.90;;;;;;4796422;29;20038;-86
2022/01/17 02:38:35;;;;;;;19.75;3.53;;;5.60;99.90;;;;;;4797512;29;20082;-86
2022/01/17 02:41:00;;;;;;;34.40;4.03;;;5.30;99.90;;;;;;4780916;29;20065;-86
2022/01/17 02:43:27;;;;;;;27.55;4.05;;;4.50;99.90;;;;;;4794829;29;20043;-85
2022/01/17 02:48:21;;;;;;;35.38;4.35;;;5.80;99.90;;;;;;4793559;29;20082;-89
2022/01/17 02:50:48;;;;;;;28.70;4.03;;;8.70;99.90;;;;;;4796904;29;20042;-86
2022/01/17 02:53:14;;;;;;;28.17;3.28;;;5.10;99.90;;;;;;4778958;29;20063;-86
2022/01/17 02:55:53;;;;;;;30.50;3.97;;;5.60;99.90;;;;;;4795464;29;20433;-86
2022/01/17 02:58:21;;;;;;;35.97;4.57;;;7.30;99.90;;;;;;4795572;29;20074;-86
2022/01/17 03:00:49;;;;;;;31.25;4.35;;;9.10;99.90;;;;;;4796178;29;20069;-86
2022/01/17 03:03:20;;;;;;;29.52;4.28;;;7.00;99.90;;;;;;4792287;29;20054;-88
2022/01/17 03:05:48;;;;;;;31.02;3.53;;;5.50;99.90;;;;;;4799923;29;20506;-85
2022/01/17 03:08:15;;;;;;;37.92;4.90;;;5.50;99.90;;;;;;4792782;29;20055;-85
2022/01/17 03:10:43;;;;;;;27.55;4.28;;;7.20;99.90;;;;;;4796287;29;20050;-87
2022/01/17 03:13:15;;;;;;;27.33;3.80;;;5.20;99.90;;;;;;4794810;29;20051;-86
2022/01/17 03:15:44;;;;;;;26.23;3.70;;;5.30;99.90;;;;;;4793651;29;20114;-86
2022/01/17 03:18:10;;;;;;;35.80;4.07;;;;;;;;;;4801523;29;20069;-88
2022/01/17 03:20:37;;;;;;;31.05;4.25;;;6.40;99.90;;;;;;4795371;29;20054;-86
2022/01/17 03:23:04;;;;;;;30.40;3.63;;;5.80;99.90;;;;;;4795349;29;20623;-88
2022/01/17 03:25:30;;;;;;;34.10;4.77;;;6.50;99.90;;;;;;4795118;29;20055;-86
2022/01/17 03:27:56;;;;;;;24.17;3.63;;;6.60;99.90;;;;;;4796680;29;20453;-87
2022/01/17 03:30:22;;;;;;;33.33;3.67;;;6.30;99.90;;;;;;4795674;29;20050;-88
2022/01/17 03:32:49;;;;;;;38.10;4.38;;;5.90;99.90;;;;;;4797284;29;20047;-86
2022/01/17 03:35:15;;;;;;;24.13;3.97;;;5.80;99.90;;;;;;4794198;29;20134;-89
2022/01/17 03:37:41;;;;;;;25.42;4.18;;;4.50;99.90;;;;;;4785510;29;20195;-85
2022/01/17 03:40:08;;;;;;;30.90;3.60;;;5.90;99.90;;;;;;4799060;29;20088;-91
2022/01/17 03:42:35;;;;;;;27.75;3.67;;;5.70;99.90;;;;;;4795476;29;20413;-84
2022/01/17 03:45:03;;;;;;;30.60;3.60;;;6.20;99.90;;;;;;4794112;29;20126;-86
2022/01/17 03:47:29;;;;;;;25.33;3.47;;;5.50;99.90;;;;;;4793192;29;20055;-84
2022/01/17 03:49:55;;;;;;;21.42;3.45;;;5.40;99.90;;;;;;4796129;29;20206;-86
2022/01/17 03:52:21;;;;;;;21.17;3.65;;;5.60;99.90;;;;;;4794562;29;20118;-85
2022/01/17 03:54:47;;;;;;;25.58;4.25;;;5.90;99.90;;;;;;4795346;29;20241;-85
2022/01/17 03:57:12;;;;;;;20.42;3.47;;;5.50;99.90;;;;;;4794620;29;20070;-85
2022/01/17 03:59:38;;;;;;;31.80;3.97;;;5.90;99.90;;;;;;4795740;29;20133;-86
2022/01/17 04:02:04;;;;;;;23.48;3.55;;;4.90;99.90;;;;;;4778789;29;20196;-86
2022/01/17 04:04:29;;;;;;;24.77;4.03;;;7.10;99.90;;;;;;4795239;29;20066;-87
2022/01/17 04:06:55;;;;;;;21.48;3.97;;;;;;;;;;4794226;29;20059;-87
2022/01/17 04:09:21;;;;;;;19.15;3.28;;;6.50;99.90;;;;;;4778154;29;20497;-88
2022/01/17 04:11:47;;;;;;;29.20;3.58;;;8.20;99.90;;;;;;4790093;29;20139;-86
2022/01/17 04:14:12;;;;;;;26.92;3.55;;;5.90;99.90;;;;;;4795168;29;20126;-86
2022/01/17 04:16:38;;;;;;;21.30;3.15;;;6.20;99.90;;;;;;4778350;29;20471;-88
2022/01/17 04:19:04;;;;;;;27.55;3.72;;;6.40;99.90;;;;;;4796579;29;20065;-85
2022/01/17 04:21:32;;;;;;;21.42;3.50;;;6.90;99.90;;;;;;4798447;29;20047;-85
2022/01/17 04:23:57;;;;;;;26.35;3.72;;;5.70;99.90;;;;;;4788557;29;20047;-86
2022/01/17 04:26:23;;;;;;;18.60;3.45;;;6.10;99.90;;;;;;4781054;29;20380;-85
2022/01/17 04:28:49;;;;;;;24.10;3.15;;;7.10;99.90;;;;;;4797894;29;20057;-85
2022/01/17 04:31:15;;;;;;;19.00;2.90;;;5.90;99.90;;;;;;4800592;29;20054;-84
2022/01/17 04:33:41;;;;;;;23.40;3.53;;;6.30;99.90;;;;;;4798102;29;20047;-87
2022/01/17 04:36:08;;;;;;;22.77;3.67;;;;;;;;;;4795963;29;20360;-88
2022/01/17 04:38:34;;;;;;;23.52;3.58;;;6.20;99.90;;;;;;4782569;29;20054;-87
2022/01/17 04:41:12;;;;;;;22.23;3.10;;;6.00;99.90;;;;;;4796339;29;20069;-86
2022/01/17 04:46:10;;;;;;;24.08;3.75;;;7.30;99.90;;;;;;4802198;29;20132;-86
2022/01/17 04:48:36;;;;;;;28.65;3.85;;;;;;;;;;4801246;29;20047;-85
2022/01/17 04:51:02;;;;;;;25.13;3.67;;;3.80;99.90;;;;;;4782355;29;20057;-85
2022/01/17 04:53:29;;;;;;;29.50;3.33;;;8.50;99.90;;;;;;4801410;29;20046;-85
2022/01/17 04:55:56;;;;;;;21.65;3.33;;;5.70;99.90;;;;;;4796303;29;20183;-85
2022/01/17 04:58:23;;;;;;;24.40;3.08;;;7.40;99.90;;;;;;4803401;29;20051;-85
2022/01/17 05:00:48;;;;;;;22.70;3.45;;;6.60;99.90;;;;;;4804005;29;20407;-85
2022/01/17 05:03:20;;;;;;;20.15;3.55;;;6.80;99.90;;;;;;4805389;29;20053;-84
2022/01/17 05:05:46;;;;;;;36.20;4.43;;;6.20;99.90;;;;;;4804120;29;20054;-85
2022/01/17 05:08:13;;;;;;;27.58;3.63;;;9.10;99.90;;;;;;4802242;29;20085;-84
2022/01/17 05:10:39;;;;;;;21.67;3.20;;;6.90;99.90;;;;;;4801698;29;20057;-86
2022/01/17 05:13:06;;;;;;;34.35;3.85;;;;;;;;;;4804599;29;20050;-85
2022/01/17 05:15:35;;;;;;;20.37;3.27;;;6.90;99.90;;;;;;4798659;29;20063;-87
2022/01/17 05:18:24;;;;;;;23.40;3.17;;;;;;;;;;4788154;29;20419;-83
2022/01/17 05:20:48;;;;;;;25.20;3.45;;;6.90;99.90;;;;;;4804394;29;20485;-85
2022/01/17 05:23:13;;;;;;;25.60;3.97;;;9.20;99.90;;;;;;4790946;29;20158;-84
2022/01/17 05:25:39;;;;;;;31.45;4.30;;;7.30;99.90;;;;;;4804037;29;20142;-87
2022/01/17 05:28:05;;;;;;;27.80;3.55;;;;;;;;;;4808754;29;20047;-86
2022/01/17 05:30:31;;;;;;;16.23;3.75;;;;;;;;;;4800335;29;20059;-87
2022/01/17 05:33:00;;;;;;;32.97;4.45;;;7.00;99.90;;;;;;4783122;29;20057;-85
2022/01/17 05:35:27;;;;;;;24.73;4.45;;;5.70;99.90;;;;;;4786795;29;20134;-87
2022/01/17 05:37:53;;;;;;;22.70;4.35;;;7.00;99.90;;;;;;4803534;29;20055;-84
2022/01/17 05:40:19;;;;;;;26.55;4.63;;;8.40;99.90;;;;;;4803091;29;20043;-88
2022/01/17 05:42:45;;;;;;;24.25;3.97;;;6.20;99.90;;;;;;4806514;29;20407;-82
2022/01/17 05:45:12;;;;;;;31.75;3.72;;;7.90;99.90;;;;;;4804361;29;20043;-84
2022/01/17 05:47:38;;;;;;;32.13;3.90;;;7.20;99.90;;;;;;4803089;29;20144;-84
2022/01/17 05:50:06;;;;;;;23.38;4.32;;;9.30;99.90;;;;;;4787639;29;20057;-86
2022/01/17 05:52:32;;;;;;;29.33;5.10;;;7.20;99.90;;;;;;4805344;29;20404;-85
2022/01/17 05:54:59;;;;;;;18.83;4.05;;;7.00;99.90;;;;;;4805659;29;20058;-83
2022/01/17 05:57:25;;;;;;;22.77;4.57;;;7.10;99.90;;;;;;4802355;29;20503;-84
2022/01/17 05:59:51;;;;;;;27.52;4.75;;;8.90;99.90;;;;;;4796395;29;20453;-87
2022/01/17 06:02:17;;;;;;;30.58;4.85;;;7.60;99.90;;;;;;4803264;29;20051;-85
2022/01/17 06:04:43;;;;;;;24.83;4.70;;;7.00;99.90;;;;;;4805098;29;20179;-85
2022/01/17 06:07:09;;;;;;;29.15;4.30;;;7.30;99.90;;;;;;4804911;29;20047;-86
2022/01/17 06:09:35;;;;;;;25.67;4.35;;;7.00;99.90;;;;;;4810368;29;20388;-84
2022/01/17 06:12:01;;;;;;;32.50;4.88;;;7.10;99.90;;;;;;4789588;29;20057;-85
2022/01/17 06:14:27;;;;;;;27.85;5.00;;;7.20;99.90;;;;;;4787976;29;20070;-86
2022/01/17 06:16:53;;;;;;;33.40;4.82;;;8.50;99.90;;;;;;4803495;29;20075;-84
2022/01/17 06:19:19;;;;;;;24.83;5.22;;;8.50;99.90;;;;;;4804034;29;20065;-85
2022/01/17 06:21:45;;;;;;;27.42;5.03;;;7.00;99.90;;;;;;4807484;29;20203;-85
2022/01/17 06:24:11;;;;;;;20.98;4.65;;;8.70;99.90;;;;;;4809950;29;20082;-84
2022/01/17 06:26:41;;;;;;;19.55;4.95;;;8.30;99.90;;;;;;4802693;29;20089;-84
2022/01/17 06:29:09;;;;;;;26.90;4.38;;;7.30;99.90;;;;;;4794447;29;20054;-84
2022/01/17 06:31:36;;;;;;;37.22;5.40;;;7.70;99.90;;;;;;4816831;29;20508;-85
2022/01/17 06:34:02;;;;;;;30.48;5.07;;;7.30;99.90;;;;;;4804637;29;20046;-85
2022/01/17 06:36:29;;;;;;;31.38;5.47;;;7.50;99.90;;;;;;4801971;29;20062;-86
2022/01/17 06:38:54;;;;;;;27.77;5.10;;;9.60;99.90;;;;;;4805681;29;20100;-88
2022/01/17 06:41:21;;;;;;;28.73;5.05;;;8.90;99.90;;;;;;4822450;29;20433;-85
2022/01/17 06:43:47;;;;;;;29.58;5.15;;;7.20;99.90;;;;;;4814176;29;20074;-85
2022/01/17 06:46:14;;;;;;;34.67;5.13;;;7.90;99.90;;;;;;4795105;29;20054;-85
2022/01/17 06:48:41;;;;;;;35.17;6.03;;;7.60;99.90;;;;;;4804343;29;20062;-84
2022/01/17 06:51:07;;;;;;;30.08;5.82;;;10.90;99.90;;;;;;4787030;29;20059;-84
2022/01/17 06:53:33;;;;;;;35.63;6.05;;;7.30;99.90;;;;;;4797420;29;20115;-84
2022/01/17 06:56:00;;;;;;;31.52;5.40;;;10.30;99.90;;;;;;4812452;29;20042;-83
2022/01/17 06:58:26;;;;;;;42.65;6.88;;;7.50;99.90;;;;;;4822657;29;20152;-83
2022/01/17 07:00:53;;;;;;;46.45;6.35;;;9.00;99.90;;;;;;4811016;29;20061;-84
2022/01/17 07:03:19;;;;;;;35.03;5.90;;;7.30;99.90;;;;;;4803903;29;20039;-84
2022/01/17 07:05:44;;;;;;;38.75;6.10;;;9.00;99.90;;;;;;4803289;29;20483;-83
2022/01/17 07:08:10;;;;;;;42.72;6.32;;;9.50;99.90;;;;;;4804339;29;20058;-84
2022/01/17 07:10:36;;;;;;;43.00;6.05;;;7.50;99.90;;;;;;4786980;29;20058;-86
2022/01/17 07:13:02;;;;;;;34.42;5.32;;;;;;;;;;4803173;29;20051;-83
2022/01/17 07:15:28;;;;;;;32.05;5.47;;;7.50;99.90;;;;;;4803645;29;20204;-85
2022/01/17 07:17:54;;;;;;;49.03;7.03;;;8.20;99.90;;;;;;4803636;29;20489;-85
2022/01/17 07:20:19;;;;;;;37.28;5.55;;;9.90;99.90;;;;;;4803821;29;20054;-84
2022/01/17 07:22:45;;;;;;;33.65;6.00;;;;;;;;;;4804249;29;20510;-84
2022/01/17 07:25:11;;;;;;;41.10;5.97;;;7.50;99.90;;;;;;4804683;29;20501;-83
2022/01/17 07:27:40;;;;;;;49.67;5.78;;;7.00;99.90;;;;;;4803535;29;20047;-84
2022/01/17 07:30:07;;;;;;;54.25;6.35;;;7.60;99.90;;;;;;4804498;29;20059;-84
2022/01/17 07:32:33;;;;;;;56.88;6.80;;;7.60;99.90;;;;;;4803724;29;20419;-84
2022/01/17 07:34:59;;;;;;;43.75;5.75;;;9.70;99.90;;;;;;4804388;29;20369;-84
2022/01/17 07:37:25;;;;;;;40.75;6.07;;;10.00;99.90;;;;;;4805935;29;20192;-84
2022/01/17 07:39:50;;;;;;;38.58;5.18;;;8.90;99.90;;;;;;4796350;29;20059;-86
2022/01/17 07:42:16;;;;;;;42.22;5.90;;;7.60;99.90;;;;;;4787571;29;20043;-84
2022/01/17 07:44:43;;;;;;;41.25;5.95;;;7.60;99.90;;;;;;4795621;29;20069;-90
2022/01/17 07:47:17;;;;;;;42.80;5.97;;;8.40;99.90;;;;;;4802977;29;20107;-83
2022/01/17 07:49:45;;;;;;;35.92;6.00;;;8.00;99.90;;;;;;4799163;29;20576;-90
2022/01/17 07:52:11;;;;;;;55.70;6.63;;;8.40;99.90;;;;;;4795897;29;20058;-84
2022/01/17 07:54:43;;;;;;;44.58;6.50;;;9.30;99.90;;;;;;4790378;29;20055;-85
2022/01/17 07:57:11;;;;;;;34.10;6.28;;;9.80;99.90;;;;;;4810202;29;20055;-84
2022/01/17 07:59:37;;;;;;;36.53;5.60;;;;;;;;;;4807060;29;20462;-84
2022/01/17 08:02:04;;;;;;;39.95;5.38;;;7.70;99.90;;;;;;4805490;29;20055;-85
2022/01/17 08:04:30;;;;;;;51.80;6.47;;;;;;;;;;4815157;29;20130;-84
2022/01/17 08:06:56;;;;;;;47.72;6.00;;;7.70;99.90;;;;;;4824229;29;20133;-84
2022/01/17 08:09:31;;;;;;;49.63;6.50;;;7.90;99.90;;;;;;4808183;29;20063;-84
2022/01/17 08:11:57;;;;;;;54.47;6.15;;;7.70;99.90;;;;;;4802416;29;20460;-84
2022/01/17 08:14:24;;;;;;;42.38;5.72;;;8.50;99.90;;;;;;4790658;29;20065;-86
2022/01/17 08:16:51;;;;;;;42.55;5.65;;;8.00;99.90;;;;;;4775110;29;20095;-84
2022/01/17 08:19:18;;;;;;;42.83;6.32;;;7.80;99.90;;;;;;4806861;29;20424;-84
2022/01/17 08:21:44;;;;;;;55.85;6.70;;;;;;;;;;4794634;29;20092;-90
2022/01/17 08:24:09;;;;;;;38.78;5.15;;;8.60;99.90;;;;;;4805937;29;20043;-86
2022/01/17 08:26:42;;;;;;;43.72;5.75;;;7.80;99.90;;;;;;4805749;29;20126;-84
2022/01/17 08:29:11;;;;;;;45.90;5.90;;;10.10;99.90;;;;;;4805707;29;20115;-84
2022/01/17 08:31:37;;;;;;;53.42;6.63;;;7.80;99.90;;;;;;4789831;29;20108;-84
2022/01/17 08:34:02;;;;;;;42.97;7.45;;;9.70;99.90;;;;;;4786121;30;20050;-84
2022/01/17 08:36:28;;;;;;;42.58;5.90;;;8.00;99.90;;;;;;4786610;29;20055;-87
2022/01/17 08:38:54;;;;;;;47.03;6.00;;;7.10;99.90;;;;;;4806929;29;20050;-86
2022/01/17 08:41:20;;;;;;;45.97;5.93;;;8.70;99.90;;;;;;4789927;29;20055;-84
2022/01/17 08:43:47;;;;;;;51.17;6.40;;;7.80;99.90;;;;;;4789908;29;20106;-91
2022/01/17 08:46:13;;;;;;;54.97;13.60;;;8.00;99.90;;;;;;4795237;29;20057;-84
2022/01/17 08:48:39;;;;;;;50.58;6.63;;;9.30;99.90;;;;;;4806433;29;20050;-84
2022/01/17 08:51:07;;;;;;;52.75;7.57;;;;;;;;;;4805787;29;20206;-84
2022/01/17 08:53:33;;;;;;;45.80;5.80;;;8.00;99.90;;;;;;4806076;29;20055;-85
2022/01/17 08:55:59;;;;;;;43.30;6.45;;;7.20;99.90;;;;;;4803161;29;20085;-84
2022/01/17 08:58:25;;;;;;;62.88;10.18;;;9.40;99.90;;;;;;4809251;29;20399;-84
2022/01/17 09:00:51;;;;;;;58.75;13.73;;;8.30;99.90;;;;;;4816277;29;20050;-84
2022/01/17 09:03:19;;;;;;;49.47;6.65;;;8.10;99.90;;;;;;4808171;29;20043;-84
2022/01/17 09:05:45;;;;;;;88.28;27.88;;;9.30;99.90;;;;;;4815966;29;20073;-84
2022/01/17 09:08:11;;;;;;;58.53;8.40;;;8.50;99.90;;;;;;4789238;29;20051;-84
2022/01/17 09:10:38;;;;;;;55.55;6.65;;;8.30;99.90;;;;;;4804853;29;20094;-86
2022/01/17 09:13:05;;;;;;;88.80;21.30;;;11.00;99.90;;;;;;4810631;29;20050;-83
2022/01/17 09:15:31;;;;;;;49.83;8.93;;;;;;;;;;4805454;29;20063;-85
2022/01/17 09:17:57;;;;;;;47.75;6.70;;;8.60;99.90;;;;;;4793755;29;20488;-83
2022/01/17 09:20:23;;;;;;;41.70;6.15;;;8.40;99.90;;;;;;4807441;29;20058;-83
2022/01/17 09:22:49;;;;;;;47.60;6.50;;;8.50;99.90;;;;;;4819338;29;20053;-90
2022/01/17 09:25:15;;;;;;;43.03;6.40;;;8.70;99.90;;;;;;4773256;29;20543;-83
2022/01/17 09:27:42;;;;;;;40.20;5.88;;;10.90;99.90;;;;;;4773474;29;20458;-86
2022/01/17 09:30:12;;;;;;;58.08;6.82;;;8.60;99.90;;;;;;4788973;29;20409;-84
2022/01/17 09:32:38;;;;;;;49.72;6.70;;;;;;;;;;4804893;29;20138;-84
2022/01/17 09:35:06;;;;;;;48.55;6.45;;;8.80;99.90;;;;;;4795415;29;20046;-85
2022/01/17 09:37:32;;;;;;;48.22;6.75;;;8.80;99.90;;;;;;4817378;29;20125;-85
2022/01/17 09:39:58;;;;;;;52.50;6.50;;;9.20;99.90;;;;;;4803676;29;20055;-84
2022/01/17 09:42:24;;;;;;;49.20;5.88;;;8.90;99.90;;;;;;4802766;29;20112;-84
2022/01/17 09:44:49;;;;;;;50.28;7.15;;;9.90;99.90;;;;;;4804856;29;20130;-85
2022/01/17 09:47:17;;;;;;;53.10;6.43;;;9.40;99.90;;;;;;4788086;29;20122;-85
2022/01/17 09:49:50;;;;;;;50.35;6.53;;;9.10;99.90;;;;;;4804851;29;20058;-84
2022/01/17 09:54:53;;;;;;;37.53;5.88;;;9.20;99.90;;;;;;4815064;29;20090;-87
2022/01/17 09:57:20;;;;;;;50.40;7.68;;;9.20;99.90;;;;;;4815045;29;20046;-85
2022/01/17 09:59:47;;;;;;;113.68;34.10;;;9.10;99.90;;;;;;4809025;29;20058;-84
2022/01/17 10:02:16;;;;;;;126.32;35.92;;;9.30;99.90;;;;;;4803618;29;20073;-84
2022/01/17 10:04:42;;;;;;;54.60;11.30;;;9.40;99.90;;;;;;4805270;29;20047;-85
2022/01/17 10:07:08;;;;;;;43.50;6.47;;;9.50;99.90;;;;;;4801711;29;20055;-84
2022/01/17 10:09:35;;;;;;;48.38;8.13;;;10.30;99.90;;;;;;4805496;29;20207;-85
2022/01/17 10:12:06;;;;;;;43.13;7.80;;;9.70;99.90;;;;;;4787241;29;20062;-85
2022/01/17 10:14:42;;;;;;;46.88;7.15;;;9.70;99.90;;;;;;4786495;29;20077;-84
2022/01/17 10:17:14;;;;;;;46.17;7.05;;;9.70;99.90;;;;;;4787844;29;20142;-84
2022/01/17 10:19:41;;;;;;;46.88;7.20;;;9.80;99.90;;;;;;4819400;29;20050;-85
2022/01/17 10:22:19;;;;;;;48.57;6.90;;;10.00;99.90;;;;;;4790518;29;20062;-85
2022/01/17 10:30:33;;;;;;;44.45;7.43;;;9.90;99.90;;;;;;4814398;29;20055;-85
2022/01/17 10:35:25;;;;;;;49.83;9.88;;;10.50;99.90;;;;;;4802613;29;20481;-84
2022/01/17 10:38:12;;;;;;;41.55;7.80;;;11.60;99.90;;;;;;4801376;29;20076;-84
2022/01/17 10:40:44;;;;;;;50.88;8.52;;;10.00;99.90;;;;;;4785988;29;20055;-86
2022/01/17 10:43:21;;;;;;;50.55;8.02;;;10.30;99.90;;;;;;4803440;29;20050;-84
2022/01/17 10:45:48;;;;;;;52.40;7.47;;;;;;;;;;4803431;29;20090;-83
2022/01/17 10:48:14;;;;;;;48.90;7.65;;;10.00;99.90;;;;;;4802881;29;20058;-85
2022/01/17 10:50:44;;;;;;;51.55;7.05;;;10.80;99.90;;;;;;4787208;29;20518;-84
2022/01/17 10:53:12;;;;;;;51.30;7.68;;;10.30;99.90;;;;;;4805497;29;20039;-85
2022/01/17 10:55:48;;;;;;;47.17;6.78;;;10.20;99.90;;;;;;4786769;29;20405;-87
2022/01/17 10:58:20;;;;;;;43.55;7.35;;;11.30;99.90;;;;;;4787252;29;20043;-84
2022/01/17 11:00:48;;;;;;;55.78;7.25;;;11.10;99.90;;;;;;4803580;29;20114;-85
2022/01/17 11:03:19;;;;;;;42.08;6.65;;;10.20;99.90;;;;;;4803898;29;20057;-84
2022/01/17 11:05:52;;;;;;;41.33;6.40;;;10.10;99.90;;;;;;4815387;29;20072;-85
2022/01/17 11:08:20;;;;;;;49.17;7.28;;;10.20;99.90;;;;;;4821294;29;20054;-84
2022/01/17 11:10:47;;;;;;;58.17;8.45;;;12.30;99.90;;;;;;4789671;29;20097;-84
2022/01/17 11:13:18;;;;;;;56.25;8.93;;;10.20;99.90;;;;;;4821491;29;20054;-85
2022/01/17 11:15:46;;;;;;;51.88;8.45;;;12.40;99.90;;;;;;4805930;29;20586;-84
2022/01/17 11:18:20;;;;;;;53.75;7.88;;;10.40;99.90;;;;;;4803013;29;20054;-83
2022/01/17 11:20:48;;;;;;;56.85;8.02;;;12.10;99.90;;;;;;4787017;29;20151;-84
2022/01/17 11:23:16;;;;;;;56.53;8.20;;;11.40;99.90;;;;;;4812697;29;20043;-83
2022/01/17 11:25:44;;;;;;;57.75;8.50;;;9.60;99.90;;;;;;4810586;29;20090;-86
2022/01/17 11:28:11;;;;;;;;;;;10.40;99.90;;;;;;4805555;29;20574;-85
2022/01/17 11:30:39;;;;;;;48.70;8.32;;;10.40;99.90;;;;;;4792485;29;20368;-84
2022/01/17 11:33:09;;;;;;;45.60;7.88;;;11.30;99.90;;;;;;4800116;29;20141;-84
2022/01/17 11:35:41;;;;;;;47.33;7.68;;;11.10;99.90;;;;;;4807298;29;20065;-85
2022/01/17 11:38:11;;;;;;;51.90;7.65;;;11.60;99.90;;;;;;4806124;29;20146;-85
2022/01/17 11:40:38;;;;;;;53.53;7.78;;;10.80;99.90;;;;;;4807631;29;20082;-83
2022/01/17 11:43:33;;;;;;;62.88;8.07;;;12.00;99.90;;;;;;4816105;29;20054;-85
2022/01/17 11:46:03;;;;;;;51.42;7.80;;;12.60;99.90;;;;;;4791222;29;20160;-85
2022/01/17 11:48:31;;;;;;;44.15;7.82;;;10.60;99.90;;;;;;4806768;29;20042;-85
2022/01/17 11:50:57;;;;;;;;;;;10.50;99.90;;;;;;4808618;29;20062;-85
2022/01/17 11:53:23;;;;;;;52.45;8.02;;;12.60;99.90;;;;;;4801612;29;19929;-84
2022/01/17 11:55:50;;;;;;;50.78;9.18;;;12.70;99.90;;;;;;4806255;29;20055;-85
2022/01/17 11:58:29;;;;;;;54.07;8.97;;;10.80;99.90;;;;;;4823862;29;20043;-84
2022/01/17 12:00:57;;;;;;;;;;;10.80;99.90;;;;;;4799702;29;20058;-85
2022/01/17 12:03:41;;;;;;;50.53;8.05;;;11.00;99.90;;;;;;4806415;29;20146;-84
2022/01/17 12:06:18;;;;;;;49.47;8.93;;;10.90;99.90;;;;;;4805177;29;20213;-91
2022/01/17 12:08:45;;;;;;;50.20;6.97;;;10.90;99.90;;;;;;4806377;29;20063;-84
2022/01/17 12:11:26;;;;;;;44.55;8.38;;;10.70;99.90;;;;;;4775188;29;20138;-84
2022/01/17 12:13:52;;;;;;;52.70;8.60;;;10.80;99.90;;;;;;4806151;29;20501;-85
2022/01/17 12:16:30;;;;;;;34.40;7.00;;;10.80;99.90;;;;;;4801044;29;20051;-84
2022/01/17 12:19:03;;;;;;;45.80;7.82;;;10.80;99.90;;;;;;4788912;30;20063;-84
2022/01/17 12:21:29;;;;;;;46.60;9.10;;;11.10;99.90;;;;;;4788413;30;20091;-84
2022/01/17 12:24:20;;;;;;;57.15;10.02;;;10.80;99.90;;;;;;4788806;30;20473;-84
2022/01/17 12:26:57;;;;;;;48.17;8.98;;;10.80;99.90;;;;;;4798090;29;20116;-84
2022/01/17 12:29:56;;;;;;;59.63;9.77;;;10.80;99.90;;;;;;4792016;29;20108;-89
2022/01/17 12:32:46;;;;;;;46.22;7.80;;;10.80;99.90;;;;;;4796586;29;20063;-83
2022/01/17 12:35:25;;;;;;;46.03;8.07;;;12.30;99.90;;;;;;4787526;30;20112;-84
2022/01/17 12:38:04;;;;;;;37.50;6.75;;;10.70;99.90;;;;;;4818312;29;20058;-85
2022/01/17 12:40:34;;;;;;;45.50;7.93;;;10.80;99.90;;;;;;4803693;29;20323;-84
2022/01/17 12:43:14;;;;;;;54.33;10.00;;;11.70;99.90;;;;;;4789392;29;20051;-84
2022/01/17 12:45:46;;;;;;;60.80;10.23;;;10.70;99.90;;;;;;4790080;29;20149;-83
2022/01/17 12:48:18;;;;;;;51.45;9.27;;;10.50;99.90;;;;;;4805431;29;20066;-84
2022/01/17 12:50:46;;;;;;;44.92;8.85;;;10.60;99.90;;;;;;4805602;29;20164;-84
2022/01/17 12:53:14;;;;;;;56.20;8.10;;;10.60;99.90;;;;;;4787229;29;20059;-89
2022/01/17 12:55:43;;;;;;;38.40;8.02;;;10.70;99.90;;;;;;4780854;29;20058;-84
2022/01/17 12:58:21;;;;;;;44.78;8.27;;;10.60;99.90;;;;;;4823444;29;20054;-84
2022/01/17 13:00:49;;;;;;;41.60;7.37;;;10.50;99.90;;;;;;4790302;29;20066;-85
2022/01/17 13:03:17;;;;;;;48.25;6.95;;;10.50;99.90;;;;;;4804573;29;20309;-83
2022/01/17 13:05:44;;;;;;;53.55;7.70;;;10.50;99.90;;;;;;4798912;29;20053;-84
2022/01/17 13:08:11;;;;;;;47.17;9.13;;;11.10;99.90;;;;;;4805870;29;20055;-85
2022/01/17 13:10:36;;;;;;;46.10;7.40;;;10.50;99.90;;;;;;4804451;29;20191;-86
2022/01/17 13:13:03;;;;;;;37.70;7.18;;;10.50;99.90;;;;;;4804971;29;20133;-85
2022/01/17 13:15:29;;;;;;;44.65;7.80;;;8.70;99.90;;;;;;4805304;29;20063;-86
2022/01/17 13:17:56;;;;;;;55.35;9.45;;;10.50;99.90;;;;;;4805547;29;20062;-84
2022/01/17 13:20:23;;;;;;;54.60;9.02;;;10.50;99.90;;;;;;4820528;29;20065;-85
2022/01/17 13:23:05;;;;;;;53.58;8.38;;;10.50;99.90;;;;;;4805158;29;20501;-84
2022/01/17 13:25:31;;;;;;;48.00;8.43;;;10.50;99.90;;;;;;4790717;29;20061;-85
2022/01/17 13:28:00;;;;;;;42.53;7.90;;;10.60;99.90;;;;;;4790867;29;20355;-84